createdAt,value
2018-12-24T00:00:37.997Z,6.10
2018-12-24T00:03:07.268Z,6.10
2018-12-24T00:05:36.472Z,6.10
2018-12-24T00:08:05.704Z,6.10
2018-12-24T00:10:34.975Z,6.10
2018-12-24T00:13:04.187Z,6.10
2018-12-24T00:15:33.409Z,6.00
2018-12-24T00:18:02.615Z,6.00
2018-12-24T00:20:31.872Z,6.00
2018-12-24T00:23:01.158Z,6.00
2018-12-24T00:25:30.444Z,5.90
2018-12-24T00:27:59.676Z,5.90
2018-12-24T00:30:28.925Z,5.90
2018-12-24T00:32:58.132Z,5.90
2018-12-24T00:35:27.364Z,5.90
2018-12-24T00:37:56.581Z,5.80
2018-12-24T00:40:25.829Z,5.80
2018-12-24T00:42:55.036Z,5.80
2018-12-24T00:45:24.734Z,5.70
2018-12-24T00:47:54.005Z,5.70
2018-12-24T00:50:23.253Z,5.60
2018-12-24T00:52:52.463Z,5.60
2018-12-24T00:55:21.674Z,5.60
2018-12-24T00:57:50.912Z,5.50
2018-12-24T01:00:20.269Z,5.50
2018-12-24T01:02:49.592Z,5.40
2018-12-24T01:05:18.814Z,5.40
2018-12-24T01:07:48.032Z,5.40
2018-12-24T01:10:17.257Z,5.30
2018-12-24T01:12:46.491Z,5.40
2018-12-24T01:15:15.683Z,5.40
2018-12-24T01:17:44.893Z,5.40
2018-12-24T01:20:14.139Z,5.40
2018-12-24T01:22:43.328Z,5.40
2018-12-24T01:25:12.604Z,5.30
2018-12-24T01:27:41.812Z,5.40
2018-12-24T01:30:11.048Z,5.30
2018-12-24T01:32:40.259Z,5.30
2018-12-24T01:35:09.936Z,5.30
2018-12-24T01:37:39.148Z,5.30
2018-12-24T01:40:08.356Z,5.20
2018-12-24T01:42:37.645Z,5.20
2018-12-24T01:45:07.048Z,5.20
2018-12-24T01:47:36.361Z,5.10
2018-12-24T01:50:05.625Z,5.10
2018-12-24T01:52:34.843Z,5.10
2018-12-24T01:55:04.052Z,5.10
2018-12-24T01:57:33.271Z,5.00
2018-12-24T02:00:02.461Z,5.00
2018-12-24T02:02:31.676Z,5.00
2018-12-24T02:05:00.920Z,5.00
2018-12-24T02:07:30.122Z,5.00
2018-12-24T02:09:59.337Z,5.00
2018-12-24T02:12:28.527Z,4.90
2018-12-24T02:14:57.755Z,4.90
2018-12-24T02:17:26.976Z,4.90
2018-12-24T02:19:56.208Z,4.90
2018-12-24T02:22:25.431Z,4.90
2018-12-24T02:24:54.650Z,4.90
2018-12-24T02:27:23.916Z,4.80
2018-12-24T02:29:53.180Z,4.80
2018-12-24T02:32:22.466Z,4.80
2018-12-24T02:34:51.689Z,4.80
2018-12-24T02:37:20.955Z,4.70
2018-12-24T02:39:50.184Z,4.70
2018-12-24T02:42:19.401Z,4.70
2018-12-24T02:44:48.609Z,4.70
2018-12-24T02:47:17.828Z,4.60
2018-12-24T02:49:47.003Z,4.60
2018-12-24T02:52:16.248Z,4.60
2018-12-24T02:54:45.460Z,4.60
2018-12-24T02:57:14.686Z,4.50
2018-12-24T02:59:43.888Z,4.40
2018-12-24T03:02:13.119Z,4.40
2018-12-24T03:04:42.464Z,4.40
2018-12-24T03:07:11.690Z,4.40
2018-12-24T03:09:40.880Z,4.30
2018-12-24T03:12:10.349Z,4.30
2018-12-24T03:14:39.633Z,4.30
2018-12-24T03:17:08.863Z,4.20
2018-12-24T03:19:38.088Z,4.20
2018-12-24T03:22:07.325Z,4.20
2018-12-24T03:24:36.532Z,4.20
2018-12-24T03:27:05.802Z,4.10
2018-12-24T03:29:35.044Z,4.10
2018-12-24T03:32:04.280Z,4.10
2018-12-24T03:34:33.642Z,4.20
2018-12-24T03:37:02.899Z,4.10
2018-12-24T03:39:32.139Z,4.10
2018-12-24T03:42:01.459Z,4.10
2018-12-24T03:44:30.664Z,4.10
2018-12-24T03:46:59.881Z,4.10
2018-12-24T03:49:29.131Z,4.10
2018-12-24T03:51:58.417Z,4.00
2018-12-24T03:54:27.656Z,4.00
2018-12-24T03:56:56.893Z,4.00
2018-12-24T03:59:26.179Z,3.90
2018-12-24T04:01:55.360Z,3.90
2018-12-24T04:04:24.593Z,3.80
2018-12-24T04:06:53.820Z,3.70
2018-12-24T04:09:23.040Z,3.70
2018-12-24T04:11:52.257Z,3.60
2018-12-24T04:14:21.480Z,3.50
2018-12-24T04:16:50.697Z,3.50
2018-12-24T04:19:20.041Z,3.50
2018-12-24T04:21:49.256Z,3.40
2018-12-24T04:24:18.658Z,3.40
2018-12-24T04:26:47.878Z,3.40
2018-12-24T04:29:17.087Z,3.30
2018-12-24T04:31:46.314Z,3.30
2018-12-24T04:34:15.562Z,3.30
2018-12-24T04:36:44.885Z,3.30
2018-12-24T04:39:14.081Z,3.20
2018-12-24T04:41:43.348Z,3.20
2018-12-24T04:44:12.541Z,3.30
2018-12-24T04:46:41.757Z,3.20
2018-12-24T04:49:10.979Z,3.20
2018-12-24T04:51:40.389Z,3.20
2018-12-24T04:54:09.600Z,3.20
2018-12-24T04:56:38.832Z,3.20
2018-12-24T04:59:08.081Z,3.10
2018-12-24T05:01:37.314Z,3.10
2018-12-24T05:04:06.530Z,3.10
2018-12-24T05:06:35.800Z,3.10
2018-12-24T05:09:07.320Z,3.10
2018-12-24T05:11:36.571Z,3.10
2018-12-24T05:14:05.854Z,3.10
2018-12-24T05:16:35.105Z,3.10
2018-12-24T05:19:04.282Z,3.10
2018-12-24T05:21:33.505Z,3.10
2018-12-24T05:24:02.710Z,3.10
2018-12-24T05:26:31.929Z,3.10
2018-12-24T05:29:01.160Z,3.10
2018-12-24T05:31:30.455Z,3.10
2018-12-24T05:33:59.720Z,3.10
2018-12-24T05:36:28.944Z,3.00
2018-12-24T05:38:58.181Z,3.00
2018-12-24T05:41:27.372Z,3.00
2018-12-24T05:43:56.657Z,3.00
2018-12-24T05:46:25.872Z,2.90
2018-12-24T05:48:55.073Z,2.90
2018-12-24T05:51:24.372Z,2.90
2018-12-24T05:53:53.686Z,2.90
2018-12-24T05:56:22.924Z,2.90
2018-12-24T05:58:52.165Z,2.90
2018-12-24T06:01:21.496Z,2.80
2018-12-24T06:03:50.734Z,2.80
2018-12-24T06:06:19.936Z,2.80
2018-12-24T06:08:49.189Z,2.80
2018-12-24T06:11:18.389Z,2.70
2018-12-24T06:13:47.628Z,2.70
2018-12-24T06:16:16.830Z,2.70
2018-12-24T06:18:46.086Z,2.70
2018-12-24T06:21:15.310Z,2.70
2018-12-24T06:23:44.573Z,2.70
2018-12-24T06:26:13.805Z,2.60
2018-12-24T06:28:43.025Z,2.60
2018-12-24T06:31:12.241Z,2.50
2018-12-24T06:33:41.472Z,2.40
2018-12-24T06:36:11.505Z,2.30
2018-12-24T06:38:41.616Z,2.20
2018-12-24T06:41:10.910Z,2.20
2018-12-24T06:43:40.110Z,2.10
2018-12-24T06:46:09.346Z,2.10
2018-12-24T06:48:38.560Z,2.10
2018-12-24T06:51:07.821Z,2.10
2018-12-24T06:53:37.028Z,2.10
2018-12-24T06:56:06.273Z,2.20
2018-12-24T06:58:35.488Z,2.20
2018-12-24T07:01:04.678Z,2.20
2018-12-24T07:03:33.906Z,2.20
2018-12-24T07:06:03.177Z,2.20
2018-12-24T07:08:32.403Z,2.20
2018-12-24T07:11:01.733Z,2.20
2018-12-24T07:13:30.945Z,2.20
2018-12-24T07:16:00.183Z,2.20
2018-12-24T07:18:29.504Z,2.20
2018-12-24T07:20:58.890Z,2.20
2018-12-24T07:23:28.196Z,2.30
2018-12-24T07:25:57.448Z,2.30
2018-12-24T07:28:26.664Z,2.30
2018-12-24T07:30:55.908Z,2.40
2018-12-24T07:33:25.119Z,2.40
2018-12-24T07:35:54.392Z,2.50
2018-12-24T07:38:24.450Z,2.50
2018-12-24T07:40:53.704Z,2.50
2018-12-24T07:43:22.936Z,2.50
2018-12-24T07:45:52.212Z,2.50
2018-12-24T07:48:21.443Z,2.50
2018-12-24T07:50:50.790Z,2.50
2018-12-24T07:53:20.016Z,2.50
2018-12-24T07:55:49.257Z,2.40
2018-12-24T07:58:18.467Z,2.40
2018-12-24T08:00:47.692Z,2.30
2018-12-24T08:03:16.933Z,2.30
2018-12-24T08:05:46.174Z,2.30
2018-12-24T08:08:15.405Z,2.20
2018-12-24T08:10:44.816Z,2.10
2018-12-24T08:13:14.025Z,2.10
2018-12-24T08:15:43.256Z,2.00
2018-12-24T08:18:12.496Z,2.00
2018-12-24T08:20:41.682Z,1.90
2018-12-24T08:23:10.868Z,1.90
2018-12-24T08:25:40.197Z,1.90
2018-12-24T08:28:09.417Z,1.90
2018-12-24T08:30:38.713Z,1.90
2018-12-24T08:33:08.065Z,1.90
2018-12-24T08:35:37.272Z,1.90
2018-12-24T08:38:06.528Z,1.90
2018-12-24T08:40:35.748Z,1.90
2018-12-24T08:43:04.982Z,1.90
2018-12-24T08:45:34.278Z,1.90
2018-12-24T08:48:03.528Z,1.90
2018-12-24T08:50:32.753Z,2.00
2018-12-24T08:53:02.063Z,2.00
2018-12-24T08:55:31.354Z,2.00
2018-12-24T08:58:00.555Z,2.00
2018-12-24T09:00:29.786Z,2.00
2018-12-24T09:02:59.093Z,2.10
2018-12-24T09:05:28.338Z,2.10
2018-12-24T09:07:57.602Z,2.30
2018-12-24T09:10:26.809Z,3.10
2018-12-24T09:12:56.030Z,4.10
2018-12-24T09:15:26.239Z,5.00
2018-12-24T09:17:55.589Z,5.70
2018-12-24T09:20:24.818Z,6.40
2018-12-24T09:22:54.151Z,6.90
2018-12-24T09:25:23.380Z,7.30
2018-12-24T09:27:52.638Z,7.30
2018-12-24T09:30:22.892Z,7.00
2018-12-24T09:32:52.164Z,6.30
2018-12-24T09:35:21.366Z,5.60
2018-12-24T09:37:50.636Z,5.20
2018-12-24T09:40:19.869Z,4.70
2018-12-24T09:42:49.102Z,4.40
2018-12-24T09:45:18.326Z,4.20
2018-12-24T09:47:47.572Z,3.90
2018-12-24T09:50:16.784Z,3.80
2018-12-24T09:52:46.013Z,3.60
2018-12-24T09:55:15.233Z,3.50
2018-12-24T09:57:44.573Z,3.50
2018-12-24T10:00:16.720Z,3.40
2018-12-24T10:03:10.389Z,3.40
2018-12-24T10:05:39.676Z,3.30
2018-12-24T10:08:12.861Z,3.30
2018-12-24T10:10:42.112Z,3.30
2018-12-24T10:13:11.467Z,3.30
2018-12-24T10:15:41.512Z,3.20
2018-12-24T10:18:10.757Z,3.20
2018-12-24T10:20:40.097Z,3.20
2018-12-24T10:23:09.333Z,3.20
2018-12-24T10:25:38.581Z,3.20
2018-12-24T10:28:07.829Z,3.20
2018-12-24T10:30:37.183Z,3.20
2018-12-24T10:33:06.389Z,3.20
2018-12-24T10:35:35.594Z,3.20
2018-12-24T10:38:04.882Z,3.20
2018-12-24T10:40:38.832Z,3.20
2018-12-24T10:43:08.095Z,3.20
2018-12-24T10:45:37.358Z,3.20
2018-12-24T10:48:06.606Z,3.20
2018-12-24T10:50:35.841Z,3.20
2018-12-24T10:53:06.193Z,3.20
2018-12-24T10:55:35.348Z,3.20
2018-12-24T10:58:04.572Z,3.30
2018-12-24T11:00:33.817Z,3.30
2018-12-24T11:03:03.121Z,3.30
2018-12-24T11:05:32.333Z,3.30
2018-12-24T11:08:01.553Z,3.50
2018-12-24T11:10:31.333Z,3.70
2018-12-24T11:13:00.605Z,3.90
2018-12-24T11:15:29.894Z,4.10
2018-12-24T11:17:59.130Z,4.10
2018-12-24T11:20:28.369Z,4.20
2018-12-24T11:22:57.597Z,4.20
2018-12-24T11:25:26.830Z,4.30
2018-12-24T11:27:56.085Z,4.30
2018-12-24T11:30:25.277Z,4.40
2018-12-24T11:32:54.492Z,4.40
2018-12-24T11:35:23.789Z,4.50
2018-12-24T11:37:53.156Z,4.50
2018-12-24T11:40:22.360Z,4.60
2018-12-24T11:42:51.585Z,4.60
2018-12-24T11:45:20.806Z,4.60
2018-12-24T11:47:50.052Z,4.60
2018-12-24T11:50:19.320Z,4.60
2018-12-24T11:52:48.547Z,4.60
2018-12-24T11:55:17.768Z,4.60
2018-12-24T11:57:47.510Z,4.60
2018-12-24T12:00:16.797Z,4.60
2018-12-24T12:02:46.005Z,4.60
2018-12-24T12:05:15.242Z,4.50
2018-12-24T12:07:44.421Z,4.50
2018-12-24T12:10:13.650Z,4.50
2018-12-24T12:12:42.895Z,4.50
2018-12-24T12:15:13.123Z,4.50
2018-12-24T12:17:42.449Z,4.50
2018-12-24T12:20:11.666Z,4.50
2018-12-24T12:22:41.092Z,4.60
2018-12-24T12:25:10.308Z,4.60
2018-12-24T12:27:39.524Z,4.70
2018-12-24T12:30:10.192Z,4.70
2018-12-24T12:32:39.549Z,4.80
2018-12-24T12:35:08.770Z,4.70
2018-12-24T12:37:38.000Z,4.80
2018-12-24T12:40:08.122Z,4.80
2018-12-24T12:42:37.316Z,4.80
2018-12-24T12:45:06.816Z,4.80
2018-12-24T12:47:36.055Z,4.80
2018-12-24T12:50:05.356Z,4.70
2018-12-24T12:52:34.567Z,4.70
2018-12-24T12:55:03.808Z,4.60
2018-12-24T12:57:33.040Z,4.60
2018-12-24T13:00:02.269Z,4.60
2018-12-24T13:02:31.544Z,4.60
2018-12-24T13:05:00.745Z,4.70
2018-12-24T13:07:29.968Z,4.70
2018-12-24T13:09:59.176Z,4.70
2018-12-24T13:12:28.504Z,4.70
2018-12-24T13:14:57.733Z,4.70
2018-12-24T13:17:26.945Z,4.70
2018-12-24T13:19:56.129Z,4.70
2018-12-24T13:22:25.391Z,4.70
2018-12-24T13:24:54.580Z,4.70
2018-12-24T13:27:23.787Z,4.60
2018-12-24T13:29:53.019Z,4.60
2018-12-24T13:32:22.264Z,4.50
2018-12-24T13:34:51.573Z,4.30
2018-12-24T13:37:20.793Z,4.30
2018-12-24T13:39:50.022Z,4.20
2018-12-24T13:42:19.252Z,4.10
2018-12-24T13:44:48.501Z,4.00
2018-12-24T13:47:17.722Z,4.00
2018-12-24T13:49:47.020Z,4.00
2018-12-24T13:52:16.247Z,4.00
2018-12-24T13:54:45.541Z,4.00
2018-12-24T13:57:14.808Z,4.00
2018-12-24T13:59:44.048Z,4.00
2018-12-24T14:02:13.304Z,4.00
2018-12-24T14:04:42.529Z,4.00
2018-12-24T14:07:11.788Z,4.00
2018-12-24T14:09:41.101Z,4.00
2018-12-24T14:12:10.337Z,4.00
2018-12-24T14:14:39.597Z,4.00
2018-12-24T14:17:08.847Z,4.00
2018-12-24T14:19:38.395Z,4.00
2018-12-24T14:22:07.604Z,4.00
2018-12-24T14:24:36.965Z,4.00
2018-12-24T14:27:06.348Z,4.00
2018-12-24T14:29:37.769Z,4.00
2018-12-24T14:32:07.193Z,4.00
2018-12-24T14:34:36.528Z,4.00
2018-12-24T14:37:05.786Z,4.00
2018-12-24T14:39:34.980Z,4.00
2018-12-24T14:42:04.242Z,4.00
2018-12-24T14:44:33.457Z,4.10
2018-12-24T14:47:02.650Z,4.10
2018-12-24T14:49:31.893Z,4.10
2018-12-24T14:52:01.137Z,4.10
2018-12-24T14:54:30.365Z,4.10
2018-12-24T14:56:59.565Z,4.10
2018-12-24T14:59:28.807Z,4.10
2018-12-24T15:01:58.098Z,4.10
2018-12-24T15:04:27.337Z,4.10
2018-12-24T15:06:56.599Z,4.00
2018-12-24T15:09:25.888Z,4.00
2018-12-24T15:11:55.118Z,3.90
2018-12-24T15:14:24.321Z,3.90
2018-12-24T15:16:53.575Z,3.80
2018-12-24T15:19:22.776Z,3.80
2018-12-24T15:21:52.029Z,3.70
2018-12-24T15:24:21.218Z,3.70
2018-12-24T15:26:50.472Z,3.70
2018-12-24T15:29:19.709Z,3.60
2018-12-24T15:31:48.986Z,3.60
2018-12-24T15:34:18.615Z,3.60
2018-12-24T15:36:47.867Z,3.60
2018-12-24T15:39:17.130Z,3.60
2018-12-24T15:41:46.348Z,3.60
2018-12-24T15:44:15.597Z,3.70
2018-12-24T15:46:44.800Z,3.70
2018-12-24T15:49:14.025Z,3.70
2018-12-24T15:51:43.380Z,3.70
2018-12-24T15:54:13.229Z,3.70
2018-12-24T15:56:42.653Z,3.70
2018-12-24T15:59:11.885Z,3.70
2018-12-24T16:01:41.150Z,3.70
2018-12-24T16:04:10.417Z,3.70
2018-12-24T16:06:39.641Z,3.70
2018-12-24T16:09:08.927Z,3.60
2018-12-24T16:11:38.149Z,3.70
2018-12-24T16:14:07.424Z,3.60
2018-12-24T16:16:36.701Z,3.60
2018-12-24T16:19:05.916Z,3.60
2018-12-24T16:21:35.164Z,3.60
2018-12-24T16:24:04.425Z,3.60
2018-12-24T16:26:33.649Z,3.60
2018-12-24T16:29:02.884Z,3.60
2018-12-24T16:31:32.133Z,3.60
2018-12-24T16:34:01.340Z,3.60
2018-12-24T16:36:30.577Z,3.60
2018-12-24T16:38:59.788Z,3.60
2018-12-24T16:41:29.250Z,3.70
2018-12-24T16:43:58.549Z,3.70
2018-12-24T16:46:28.197Z,3.70
2018-12-24T16:48:57.424Z,3.70
2018-12-24T16:51:26.673Z,3.70
2018-12-24T16:53:55.936Z,3.80
2018-12-24T16:56:25.189Z,3.80
2018-12-24T16:58:54.402Z,3.80
2018-12-24T17:01:23.739Z,3.80
2018-12-24T17:03:53.008Z,3.80
2018-12-24T17:06:22.234Z,3.80
2018-12-24T17:08:51.468Z,3.80
2018-12-24T17:11:20.781Z,3.80
2018-12-24T17:13:50.024Z,3.80
2018-12-24T17:16:19.220Z,3.80
2018-12-24T17:18:48.437Z,3.80
2018-12-24T17:21:17.704Z,3.80
2018-12-24T17:23:46.900Z,3.80
2018-12-24T17:26:16.124Z,3.80
2018-12-24T17:28:45.341Z,3.80
2018-12-24T17:31:14.597Z,3.80
2018-12-24T17:33:43.855Z,3.80
2018-12-24T17:36:13.062Z,3.80
2018-12-24T17:38:42.268Z,3.80
2018-12-24T17:41:11.513Z,3.80
2018-12-24T17:43:40.810Z,3.80
2018-12-24T17:46:10.107Z,3.80
2018-12-24T17:48:39.342Z,3.80
2018-12-24T17:51:08.596Z,3.80
2018-12-24T17:53:37.878Z,3.80
2018-12-24T17:56:07.168Z,3.80
2018-12-24T17:58:36.499Z,3.80
2018-12-24T18:01:05.982Z,3.80
2018-12-24T18:03:35.357Z,3.80
2018-12-24T18:06:04.603Z,3.90
2018-12-24T18:08:34.018Z,3.90
2018-12-24T18:11:03.257Z,3.90
2018-12-24T18:13:32.503Z,3.90
2018-12-24T18:16:01.840Z,3.90
2018-12-24T18:18:30.993Z,3.90
2018-12-24T18:21:00.223Z,3.90
2018-12-24T18:23:29.435Z,3.80
2018-12-24T18:25:58.673Z,3.80
2018-12-24T18:28:27.962Z,3.80
2018-12-24T18:30:58.133Z,3.80
2018-12-24T18:33:27.374Z,3.80
2018-12-24T18:35:56.633Z,3.80
2018-12-24T18:38:25.921Z,3.70
2018-12-24T18:40:55.217Z,3.70
2018-12-24T18:43:24.546Z,3.70
2018-12-24T18:45:53.752Z,3.70
2018-12-24T18:48:22.981Z,3.70
2018-12-24T18:50:52.224Z,3.70
2018-12-24T18:53:21.544Z,3.70
2018-12-24T18:55:50.789Z,3.70
2018-12-24T18:58:20.119Z,3.70
2018-12-24T19:00:49.380Z,3.70
2018-12-24T19:03:18.605Z,3.70
2018-12-24T19:05:47.897Z,3.70
2018-12-24T19:08:17.109Z,3.80
2018-12-24T19:10:46.347Z,3.80
2018-12-24T19:13:15.565Z,3.80
2018-12-24T19:15:44.801Z,3.80
2018-12-24T19:18:14.034Z,3.80
2018-12-24T19:20:43.245Z,3.80
2018-12-24T19:23:12.545Z,3.80
2018-12-24T19:25:41.765Z,3.80
2018-12-24T19:28:11.087Z,3.80
2018-12-24T19:30:40.370Z,3.90
2018-12-24T19:33:09.609Z,3.90
2018-12-24T19:35:38.844Z,3.90
2018-12-24T19:38:08.077Z,4.00
2018-12-24T19:40:37.335Z,4.00
2018-12-24T19:43:06.612Z,4.00
2018-12-24T19:45:35.845Z,4.00
2018-12-24T19:48:05.050Z,4.00
2018-12-24T19:50:34.268Z,4.00
2018-12-24T19:53:03.504Z,4.10
2018-12-24T19:55:32.829Z,4.10
2018-12-24T19:58:02.025Z,4.10
2018-12-24T20:00:31.271Z,4.10
2018-12-24T20:03:00.545Z,4.10
2018-12-24T20:05:29.788Z,4.20
2018-12-24T20:07:59.078Z,4.30
2018-12-24T20:10:28.280Z,4.40
2018-12-24T20:12:57.498Z,4.40
2018-12-24T20:15:26.731Z,4.50
2018-12-24T20:17:58.416Z,4.60
2018-12-24T20:20:26.917Z,4.70
2018-12-24T20:22:56.160Z,4.70
2018-12-24T20:25:25.366Z,4.70
2018-12-24T20:27:54.604Z,4.80
2018-12-24T20:30:23.800Z,4.80
2018-12-24T20:32:53.085Z,4.90
2018-12-24T20:35:22.494Z,4.90
2018-12-24T20:37:51.989Z,4.90
2018-12-24T20:40:21.242Z,5.00
2018-12-24T20:42:50.629Z,5.00
2018-12-24T20:45:19.873Z,5.00
2018-12-24T20:47:49.089Z,5.00
2018-12-24T20:50:18.321Z,5.00
2018-12-24T20:52:47.541Z,5.10
2018-12-24T20:55:16.879Z,5.10
2018-12-24T20:57:46.073Z,5.10
2018-12-24T21:00:15.465Z,5.10
2018-12-24T21:02:44.691Z,5.10
2018-12-24T21:05:13.937Z,5.10
2018-12-24T21:07:43.217Z,5.00
2018-12-24T21:10:12.452Z,5.10
2018-12-24T21:12:41.698Z,5.10
2018-12-24T21:15:10.985Z,5.10
2018-12-24T21:17:40.249Z,5.10
2018-12-24T21:20:09.497Z,5.10
2018-12-24T21:22:38.716Z,5.20
2018-12-24T21:25:08.076Z,5.20
2018-12-24T21:27:37.296Z,5.20
2018-12-24T21:30:07.501Z,5.20
2018-12-24T21:32:36.745Z,5.20
2018-12-24T21:35:06.046Z,5.20
2018-12-24T21:37:35.309Z,5.20
2018-12-24T21:40:04.540Z,5.10
2018-12-24T21:42:33.941Z,5.10
2018-12-24T21:45:03.279Z,5.10
2018-12-24T21:47:32.557Z,5.10
2018-12-24T21:50:01.775Z,5.10
2018-12-24T21:52:31.020Z,5.10
2018-12-24T21:55:00.347Z,5.10
2018-12-24T21:57:29.587Z,5.10
2018-12-24T21:59:58.908Z,5.10
2018-12-24T22:02:28.141Z,5.00
2018-12-24T22:04:57.403Z,5.00
2018-12-24T22:07:26.657Z,4.90
2018-12-24T22:09:55.884Z,4.90
2018-12-24T22:12:25.235Z,4.90
2018-12-24T22:14:54.446Z,4.90
2018-12-24T22:17:23.661Z,4.90
2018-12-24T22:19:52.945Z,4.90
2018-12-24T22:22:22.145Z,4.90
2018-12-24T22:24:51.348Z,5.00
2018-12-24T22:27:20.665Z,5.00
2018-12-24T22:29:49.964Z,5.00
2018-12-24T22:32:19.161Z,5.00
2018-12-24T22:34:48.404Z,5.10
2018-12-24T22:37:17.664Z,5.20
2018-12-24T22:39:46.873Z,5.20
2018-12-24T22:42:16.122Z,5.20
2018-12-24T22:44:45.333Z,5.30
2018-12-24T22:47:14.540Z,5.30
2018-12-24T22:49:43.797Z,5.30
2018-12-24T22:52:13.122Z,5.30
2018-12-24T22:54:42.348Z,5.30
2018-12-24T22:57:11.601Z,5.40
2018-12-24T22:59:40.801Z,5.40
2018-12-24T23:02:10.100Z,5.40
2018-12-24T23:04:39.324Z,5.40
2018-12-24T23:07:08.544Z,5.40
2018-12-24T23:09:37.806Z,5.40
2018-12-24T23:12:07.042Z,5.40
2018-12-24T23:14:36.270Z,5.40
2018-12-24T23:17:05.500Z,5.30
2018-12-24T23:19:34.722Z,5.30
2018-12-24T23:22:03.989Z,5.30
2018-12-24T23:24:33.238Z,5.30
2018-12-24T23:27:02.503Z,5.20
2018-12-24T23:29:31.683Z,5.30
2018-12-24T23:32:00.910Z,5.30
2018-12-24T23:34:30.145Z,5.30
2018-12-24T23:36:59.419Z,5.20
2018-12-24T23:39:28.646Z,5.20
2018-12-24T23:41:57.886Z,5.20
2018-12-24T23:44:27.100Z,5.20
2018-12-24T23:46:56.337Z,5.30
2018-12-24T23:49:25.582Z,5.30
2018-12-24T23:51:54.838Z,5.30
2018-12-24T23:54:24.094Z,5.30
2018-12-24T23:56:53.329Z,5.30
2018-12-24T23:59:22.585Z,5.30
